sensor_id;sensor_type;location;lat;lon;timestamp;P1;durP1;ratioP1;P2;durP2;ratioP2
4646;SDS011;2336;47.822;7.564;2024-01-15T00:01:51;31.25;;;20.05;;
4646;SDS011;2336;47.822;7.564;2024-01-15T00:04:18;37.65;;;22.58;;
4646;SDS011;2336;47.822;7.564;2024-01-15T00:06:44;34.55;;;21.70;;
4646;SDS011;2336;47.822;7.564;2024-01-15T00:09:11;32.50;;;20.17;;
4646;SDS011;2336;47.822;7.564;2024-01-15T00:11:39;35.97;;;21.90;;
4646;SDS011;2336;47.822;7.564;2024-01-15T00:14:06;36.83;;;22.10;;
4646;SDS011;2336;47.822;7.564;2024-01-15T00:16:33;34.53;;;21.17;;
4646;SDS011;2336;47.822;7.564;2024-01-15T00:18:59;35.10;;;21.95;;
4646;SDS011;2336;47.822;7.564;2024-01-15T00:21:26;37.30;;;23.38;;
4646;SDS011;2336;47.822;7.564;2024-01-15T00:23:53;38.30;;;22.67;;
4646;SDS011;2336;47.822;7.564;2024-01-15T00:26:20;39.55;;;23.30;;
4646;SDS011;2336;47.822;7.564;2024-01-15T00:28:48;37.80;;;22.15;;
4646;SDS011;2336;47.822;7.564;2024-01-15T00:31:15;38.67;;;23.25;;
4646;SDS011;2336;47.822;7.564;2024-01-15T00:33:42;41.72;;;23.10;;
4646;SDS011;2336;47.822;7.564;2024-01-15T00:36:09;43.95;;;25.75;;
4646;SDS011;2336;47.822;7.564;2024-01-15T00:38:36;40.60;;;23.65;;
4646;SDS011;2336;47.822;7.564;2024-01-15T00:41:02;41.95;;;24.13;;
4646;SDS011;2336;47.822;7.564;2024-01-15T00:43:30;36.22;;;22.92;;
4646;SDS011;2336;47.822;7.564;2024-01-15T00:45:58;43.15;;;24.83;;
4646;SDS011;2336;47.822;7.564;2024-01-15T00:48:27;41.75;;;24.08;;
4646;SDS011;2336;47.822;7.564;2024-01-15T00:50:54;35.92;;;22.30;;
4646;SDS011;2336;47.822;7.564;2024-01-15T00:53:20;43.10;;;24.92;;
4646;SDS011;2336;47.822;7.564;2024-01-15T00:55:48;36.75;;;21.48;;
4646;SDS011;2336;47.822;7.564;2024-01-15T00:58:15;37.13;;;23.23;;
4646;SDS011;2336;47.822;7.564;2024-01-15T01:00:41;41.47;;;23.42;;
4646;SDS011;2336;47.822;7.564;2024-01-15T01:03:10;45.53;;;25.58;;
4646;SDS011;2336;47.822;7.564;2024-01-15T01:05:36;40.63;;;23.30;;
4646;SDS011;2336;47.822;7.564;2024-01-15T01:08:03;42.05;;;24.42;;
4646;SDS011;2336;47.822;7.564;2024-01-15T01:10:30;45.08;;;24.73;;
4646;SDS011;2336;47.822;7.564;2024-01-15T01:12:57;38.38;;;22.98;;
4646;SDS011;2336;47.822;7.564;2024-01-15T01:15:24;40.47;;;22.90;;
4646;SDS011;2336;47.822;7.564;2024-01-15T01:17:51;45.58;;;23.50;;
4646;SDS011;2336;47.822;7.564;2024-01-15T01:20:19;44.08;;;24.40;;
4646;SDS011;2336;47.822;7.564;2024-01-15T01:22:46;39.63;;;23.63;;
4646;SDS011;2336;47.822;7.564;2024-01-15T01:25:13;38.40;;;22.90;;
4646;SDS011;2336;47.822;7.564;2024-01-15T01:27:40;40.13;;;23.45;;
4646;SDS011;2336;47.822;7.564;2024-01-15T01:30:07;43.25;;;24.70;;
4646;SDS011;2336;47.822;7.564;2024-01-15T01:32:35;39.35;;;23.58;;
4646;SDS011;2336;47.822;7.564;2024-01-15T01:35:01;39.10;;;23.73;;
4646;SDS011;2336;47.822;7.564;2024-01-15T01:37:30;37.75;;;22.48;;
4646;SDS011;2336;47.822;7.564;2024-01-15T01:39:56;39.70;;;23.30;;
4646;SDS011;2336;47.822;7.564;2024-01-15T01:42:23;42.92;;;24.02;;
4646;SDS011;2336;47.822;7.564;2024-01-15T01:44:50;38.03;;;22.63;;
4646;SDS011;2336;47.822;7.564;2024-01-15T01:47:17;40.95;;;22.52;;
4646;SDS011;2336;47.822;7.564;2024-01-15T01:49:45;38.10;;;22.33;;
4646;SDS011;2336;47.822;7.564;2024-01-15T01:52:12;38.00;;;22.73;;
4646;SDS011;2336;47.822;7.564;2024-01-15T01:54:41;37.70;;;22.33;;
4646;SDS011;2336;47.822;7.564;2024-01-15T01:57:08;37.70;;;21.85;;
4646;SDS011;2336;47.822;7.564;2024-01-15T01:59:35;36.33;;;21.10;;
4646;SDS011;2336;47.822;7.564;2024-01-15T02:02:03;39.95;;;22.95;;
4646;SDS011;2336;47.822;7.564;2024-01-15T02:04:31;37.13;;;21.27;;
4646;SDS011;2336;47.822;7.564;2024-01-15T02:06:58;36.25;;;21.88;;
4646;SDS011;2336;47.822;7.564;2024-01-15T02:09:24;37.50;;;22.17;;
4646;SDS011;2336;47.822;7.564;2024-01-15T02:11:52;38.63;;;21.17;;
4646;SDS011;2336;47.822;7.564;2024-01-15T02:14:19;35.47;;;22.00;;
4646;SDS011;2336;47.822;7.564;2024-01-15T02:16:46;35.65;;;21.05;;
4646;SDS011;2336;47.822;7.564;2024-01-15T02:19:14;35.67;;;19.80;;
4646;SDS011;2336;47.822;7.564;2024-01-15T02:21:42;37.00;;;22.20;;
4646;SDS011;2336;47.822;7.564;2024-01-15T02:24:10;34.85;;;20.92;;
4646;SDS011;2336;47.822;7.564;2024-01-15T02:26:37;37.08;;;21.80;;
4646;SDS011;2336;47.822;7.564;2024-01-15T02:29:04;36.55;;;22.05;;
4646;SDS011;2336;47.822;7.564;2024-01-15T02:31:32;34.95;;;19.58;;
4646;SDS011;2336;47.822;7.564;2024-01-15T02:33:59;35.50;;;21.02;;
4646;SDS011;2336;47.822;7.564;2024-01-15T02:36:26;32.17;;;20.67;;
4646;SDS011;2336;47.822;7.564;2024-01-15T02:38:53;33.20;;;20.40;;
4646;SDS011;2336;47.822;7.564;2024-01-15T02:41:21;33.88;;;20.30;;
4646;SDS011;2336;47.822;7.564;2024-01-15T02:43:48;33.38;;;21.00;;
4646;SDS011;2336;47.822;7.564;2024-01-15T02:46:14;31.67;;;20.33;;
4646;SDS011;2336;47.822;7.564;2024-01-15T02:48:41;33.55;;;19.58;;
4646;SDS011;2336;47.822;7.564;2024-01-15T02:51:08;39.92;;;22.02;;
4646;SDS011;2336;47.822;7.564;2024-01-15T02:53:35;33.80;;;20.67;;
4646;SDS011;2336;47.822;7.564;2024-01-15T02:56:02;37.97;;;21.15;;
4646;SDS011;2336;47.822;7.564;2024-01-15T02:58:31;34.92;;;20.17;;
4646;SDS011;2336;47.822;7.564;2024-01-15T03:00:58;31.38;;;19.33;;
4646;SDS011;2336;47.822;7.564;2024-01-15T03:03:24;33.30;;;19.92;;
4646;SDS011;2336;47.822;7.564;2024-01-15T03:05:51;35.55;;;21.35;;
4646;SDS011;2336;47.822;7.564;2024-01-15T03:08:18;38.10;;;21.08;;
4646;SDS011;2336;47.822;7.564;2024-01-15T03:10:45;33.13;;;19.35;;
4646;SDS011;2336;47.822;7.564;2024-01-15T03:13:12;35.08;;;20.17;;
4646;SDS011;2336;47.822;7.564;2024-01-15T03:15:40;37.60;;;20.08;;
4646;SDS011;2336;47.822;7.564;2024-01-15T03:18:07;31.10;;;19.02;;
4646;SDS011;2336;47.822;7.564;2024-01-15T03:20:33;40.45;;;20.17;;
4646;SDS011;2336;47.822;7.564;2024-01-15T03:23:00;31.98;;;19.77;;
4646;SDS011;2336;47.822;7.564;2024-01-15T03:25:27;35.70;;;20.20;;
4646;SDS011;2336;47.822;7.564;2024-01-15T03:27:54;34.93;;;20.70;;
4646;SDS011;2336;47.822;7.564;2024-01-15T03:30:20;35.03;;;19.80;;
4646;SDS011;2336;47.822;7.564;2024-01-15T03:32:48;35.33;;;20.80;;
4646;SDS011;2336;47.822;7.564;2024-01-15T03:35:16;35.80;;;19.85;;
4646;SDS011;2336;47.822;7.564;2024-01-15T03:37:42;30.07;;;18.77;;
4646;SDS011;2336;47.822;7.564;2024-01-15T03:40:09;40.37;;;21.17;;
4646;SDS011;2336;47.822;7.564;2024-01-15T03:42:37;34.60;;;19.60;;
4646;SDS011;2336;47.822;7.564;2024-01-15T03:45:04;36.10;;;21.30;;
4646;SDS011;2336;47.822;7.564;2024-01-15T03:47:31;37.00;;;21.52;;
4646;SDS011;2336;47.822;7.564;2024-01-15T03:50:00;35.73;;;20.87;;
4646;SDS011;2336;47.822;7.564;2024-01-15T03:52:27;33.22;;;19.42;;
4646;SDS011;2336;47.822;7.564;2024-01-15T03:54:53;35.28;;;20.95;;
4646;SDS011;2336;47.822;7.564;2024-01-15T03:57:20;36.10;;;21.42;;
4646;SDS011;2336;47.822;7.564;2024-01-15T03:59:47;33.00;;;19.83;;
4646;SDS011;2336;47.822;7.564;2024-01-15T04:02:14;33.57;;;20.10;;
4646;SDS011;2336;47.822;7.564;2024-01-15T04:04:40;35.10;;;21.80;;
4646;SDS011;2336;47.822;7.564;2024-01-15T04:07:09;34.67;;;18.93;;
4646;SDS011;2336;47.822;7.564;2024-01-15T04:09:36;32.10;;;20.47;;
4646;SDS011;2336;47.822;7.564;2024-01-15T04:12:03;31.10;;;19.10;;
4646;SDS011;2336;47.822;7.564;2024-01-15T04:14:30;37.38;;;21.55;;
4646;SDS011;2336;47.822;7.564;2024-01-15T04:16:57;34.33;;;20.00;;
4646;SDS011;2336;47.822;7.564;2024-01-15T04:19:24;32.63;;;20.08;;
4646;SDS011;2336;47.822;7.564;2024-01-15T04:21:50;35.67;;;19.50;;
4646;SDS011;2336;47.822;7.564;2024-01-15T04:24:19;34.77;;;20.00;;
4646;SDS011;2336;47.822;7.564;2024-01-15T04:26:45;30.63;;;19.20;;
4646;SDS011;2336;47.822;7.564;2024-01-15T04:29:13;32.85;;;19.10;;
4646;SDS011;2336;47.822;7.564;2024-01-15T04:31:40;33.70;;;19.20;;
4646;SDS011;2336;47.822;7.564;2024-01-15T04:34:06;27.90;;;18.40;;
4646;SDS011;2336;47.822;7.564;2024-01-15T04:36:38;30.90;;;18.27;;
4646;SDS011;2336;47.822;7.564;2024-01-15T04:39:05;32.97;;;19.80;;
4646;SDS011;2336;47.822;7.564;2024-01-15T04:41:33;33.08;;;19.27;;
4646;SDS011;2336;47.822;7.564;2024-01-15T04:44:00;32.78;;;19.88;;
4646;SDS011;2336;47.822;7.564;2024-01-15T04:46:27;32.45;;;19.05;;
4646;SDS011;2336;47.822;7.564;2024-01-15T04:48:53;34.87;;;20.20;;
4646;SDS011;2336;47.822;7.564;2024-01-15T04:51:20;32.20;;;19.43;;
4646;SDS011;2336;47.822;7.564;2024-01-15T04:53:47;32.37;;;19.23;;
4646;SDS011;2336;47.822;7.564;2024-01-15T04:56:14;30.53;;;19.17;;
4646;SDS011;2336;47.822;7.564;2024-01-15T04:58:42;29.63;;;18.83;;
4646;SDS011;2336;47.822;7.564;2024-01-15T05:01:08;32.83;;;18.70;;
4646;SDS011;2336;47.822;7.564;2024-01-15T05:03:36;33.40;;;19.00;;
4646;SDS011;2336;47.822;7.564;2024-01-15T05:06:03;26.97;;;17.03;;
4646;SDS011;2336;47.822;7.564;2024-01-15T05:08:30;34.10;;;19.10;;
4646;SDS011;2336;47.822;7.564;2024-01-15T05:10:57;29.50;;;18.43;;
4646;SDS011;2336;47.822;7.564;2024-01-15T05:13:24;30.60;;;17.93;;
4646;SDS011;2336;47.822;7.564;2024-01-15T05:15:52;30.73;;;19.20;;
4646;SDS011;2336;47.822;7.564;2024-01-15T05:18:19;28.77;;;17.50;;
4646;SDS011;2336;47.822;7.564;2024-01-15T05:20:45;31.03;;;19.00;;
4646;SDS011;2336;47.822;7.564;2024-01-15T05:23:12;31.50;;;19.80;;
4646;SDS011;2336;47.822;7.564;2024-01-15T05:25:39;32.60;;;20.23;;
4646;SDS011;2336;47.822;7.564;2024-01-15T05:28:06;28.60;;;19.27;;
4646;SDS011;2336;47.822;7.564;2024-01-15T05:30:33;30.37;;;18.40;;
4646;SDS011;2336;47.822;7.564;2024-01-15T05:33:01;33.63;;;20.83;;
4646;SDS011;2336;47.822;7.564;2024-01-15T05:35:28;30.47;;;18.80;;
4646;SDS011;2336;47.822;7.564;2024-01-15T05:37:55;29.40;;;18.30;;
4646;SDS011;2336;47.822;7.564;2024-01-15T05:40:21;27.83;;;18.30;;
4646;SDS011;2336;47.822;7.564;2024-01-15T05:42:48;30.90;;;19.00;;
4646;SDS011;2336;47.822;7.564;2024-01-15T05:45:15;33.10;;;20.27;;
4646;SDS011;2336;47.822;7.564;2024-01-15T05:47:42;33.73;;;20.53;;
4646;SDS011;2336;47.822;7.564;2024-01-15T05:50:11;36.67;;;22.87;;
4646;SDS011;2336;47.822;7.564;2024-01-15T05:52:37;33.30;;;20.60;;
4646;SDS011;2336;47.822;7.564;2024-01-15T05:55:04;28.23;;;18.20;;
4646;SDS011;2336;47.822;7.564;2024-01-15T05:57:31;31.90;;;18.77;;
4646;SDS011;2336;47.822;7.564;2024-01-15T05:59:58;37.90;;;22.97;;
4646;SDS011;2336;47.822;7.564;2024-01-15T06:02:25;32.50;;;20.97;;
4646;SDS011;2336;47.822;7.564;2024-01-15T06:04:51;27.90;;;19.63;;
4646;SDS011;2336;47.822;7.564;2024-01-15T06:07:19;32.30;;;19.63;;
4646;SDS011;2336;47.822;7.564;2024-01-15T06:09:47;30.40;;;19.10;;
4646;SDS011;2336;47.822;7.564;2024-01-15T06:12:14;41.70;;;28.20;;
4646;SDS011;2336;47.822;7.564;2024-01-15T06:14:41;45.97;;;30.80;;
4646;SDS011;2336;47.822;7.564;2024-01-15T06:17:08;61.17;;;39.10;;
4646;SDS011;2336;47.822;7.564;2024-01-15T06:19:35;73.03;;;50.03;;
4646;SDS011;2336;47.822;7.564;2024-01-15T06:22:01;49.80;;;36.13;;
4646;SDS011;2336;47.822;7.564;2024-01-15T06:24:29;36.10;;;24.60;;
4646;SDS011;2336;47.822;7.564;2024-01-15T06:26:56;29.40;;;19.63;;
4646;SDS011;2336;47.822;7.564;2024-01-15T06:29:25;27.93;;;17.90;;
4646;SDS011;2336;47.822;7.564;2024-01-15T06:31:52;28.83;;;19.47;;
4646;SDS011;2336;47.822;7.564;2024-01-15T06:34:19;26.90;;;17.30;;
4646;SDS011;2336;47.822;7.564;2024-01-15T06:36:46;26.27;;;18.03;;
4646;SDS011;2336;47.822;7.564;2024-01-15T06:39:12;23.93;;;15.00;;
4646;SDS011;2336;47.822;7.564;2024-01-15T06:41:41;29.70;;;19.00;;
4646;SDS011;2336;47.822;7.564;2024-01-15T06:44:09;25.00;;;16.57;;
4646;SDS011;2336;47.822;7.564;2024-01-15T06:46:36;29.37;;;18.27;;
4646;SDS011;2336;47.822;7.564;2024-01-15T06:49:07;27.80;;;17.70;;
4646;SDS011;2336;47.822;7.564;2024-01-15T06:51:34;29.30;;;17.83;;
4646;SDS011;2336;47.822;7.564;2024-01-15T06:54:00;29.30;;;20.20;;
4646;SDS011;2336;47.822;7.564;2024-01-15T06:56:27;31.50;;;21.50;;
4646;SDS011;2336;47.822;7.564;2024-01-15T06:58:55;33.40;;;20.80;;
4646;SDS011;2336;47.822;7.564;2024-01-15T07:01:22;35.10;;;24.97;;
4646;SDS011;2336;47.822;7.564;2024-01-15T07:03:49;28.87;;;18.57;;
4646;SDS011;2336;47.822;7.564;2024-01-15T07:06:16;27.10;;;17.67;;
4646;SDS011;2336;47.822;7.564;2024-01-15T07:08:42;27.33;;;15.73;;
4646;SDS011;2336;47.822;7.564;2024-01-15T07:11:09;27.73;;;18.70;;
4646;SDS011;2336;47.822;7.564;2024-01-15T07:13:36;32.97;;;22.50;;
4646;SDS011;2336;47.822;7.564;2024-01-15T07:16:05;26.53;;;16.07;;
4646;SDS011;2336;47.822;7.564;2024-01-15T07:18:32;24.17;;;15.63;;
4646;SDS011;2336;47.822;7.564;2024-01-15T07:20:59;21.33;;;14.40;;
4646;SDS011;2336;47.822;7.564;2024-01-15T07:23:26;23.90;;;15.50;;
4646;SDS011;2336;47.822;7.564;2024-01-15T07:25:53;24.73;;;16.50;;
4646;SDS011;2336;47.822;7.564;2024-01-15T07:28:20;25.83;;;15.23;;
4646;SDS011;2336;47.822;7.564;2024-01-15T07:30:46;22.90;;;14.63;;
4646;SDS011;2336;47.822;7.564;2024-01-15T07:33:15;20.37;;;13.57;;
4646;SDS011;2336;47.822;7.564;2024-01-15T07:35:41;21.27;;;12.63;;
4646;SDS011;2336;47.822;7.564;2024-01-15T07:38:08;22.03;;;13.30;;
4646;SDS011;2336;47.822;7.564;2024-01-15T07:40:36;20.75;;;13.70;;
4646;SDS011;2336;47.822;7.564;2024-01-15T07:43:03;18.73;;;12.40;;
4646;SDS011;2336;47.822;7.564;2024-01-15T07:45:30;22.40;;;14.30;;
4646;SDS011;2336;47.822;7.564;2024-01-15T07:47:57;25.03;;;16.97;;
4646;SDS011;2336;47.822;7.564;2024-01-15T07:50:25;22.50;;;15.73;;
4646;SDS011;2336;47.822;7.564;2024-01-15T07:52:52;18.77;;;12.80;;
4646;SDS011;2336;47.822;7.564;2024-01-15T07:55:19;22.13;;;15.00;;
4646;SDS011;2336;47.822;7.564;2024-01-15T07:57:46;23.97;;;15.40;;
4646;SDS011;2336;47.822;7.564;2024-01-15T08:00:13;23.47;;;17.40;;
4646;SDS011;2336;47.822;7.564;2024-01-15T08:02:40;33.73;;;24.23;;
4646;SDS011;2336;47.822;7.564;2024-01-15T08:05:07;20.00;;;14.60;;
4646;SDS011;2336;47.822;7.564;2024-01-15T08:07:35;29.77;;;20.93;;
4646;SDS011;2336;47.822;7.564;2024-01-15T08:10:01;15.27;;;10.80;;
4646;SDS011;2336;47.822;7.564;2024-01-15T08:12:28;16.33;;;10.57;;
4646;SDS011;2336;47.822;7.564;2024-01-15T08:14:55;29.60;;;20.60;;
4646;SDS011;2336;47.822;7.564;2024-01-15T08:17:22;27.63;;;18.20;;
4646;SDS011;2336;47.822;7.564;2024-01-15T08:19:53;14.80;;;11.90;;
4646;SDS011;2336;47.822;7.564;2024-01-15T08:22:20;17.43;;;12.20;;
4646;SDS011;2336;47.822;7.564;2024-01-15T08:24:48;13.43;;;10.00;;
4646;SDS011;2336;47.822;7.564;2024-01-15T08:27:14;21.67;;;14.53;;
4646;SDS011;2336;47.822;7.564;2024-01-15T08:29:41;27.17;;;20.17;;
4646;SDS011;2336;47.822;7.564;2024-01-15T08:32:08;21.80;;;15.13;;
4646;SDS011;2336;47.822;7.564;2024-01-15T08:34:38;12.33;;;9.80;;
4646;SDS011;2336;47.822;7.564;2024-01-15T08:37:05;12.80;;;9.77;;
4646;SDS011;2336;47.822;7.564;2024-01-15T08:39:32;12.50;;;9.77;;
4646;SDS011;2336;47.822;7.564;2024-01-15T08:42:00;15.50;;;10.10;;
4646;SDS011;2336;47.822;7.564;2024-01-15T08:44:28;17.60;;;11.23;;
4646;SDS011;2336;47.822;7.564;2024-01-15T08:46:54;15.03;;;10.80;;
4646;SDS011;2336;47.822;7.564;2024-01-15T08:49:21;15.00;;;11.03;;
4646;SDS011;2336;47.822;7.564;2024-01-15T08:51:48;15.03;;;11.03;;
4646;SDS011;2336;47.822;7.564;2024-01-15T08:54:15;15.17;;;10.93;;
4646;SDS011;2336;47.822;7.564;2024-01-15T08:56:43;13.93;;;11.00;;
4646;SDS011;2336;47.822;7.564;2024-01-15T08:59:11;16.03;;;11.50;;
4646;SDS011;2336;47.822;7.564;2024-01-15T09:01:38;18.07;;;13.30;;
4646;SDS011;2336;47.822;7.564;2024-01-15T09:04:04;29.80;;;19.97;;
4646;SDS011;2336;47.822;7.564;2024-01-15T09:06:31;18.07;;;13.30;;
4646;SDS011;2336;47.822;7.564;2024-01-15T09:08:58;16.40;;;12.47;;
4646;SDS011;2336;47.822;7.564;2024-01-15T09:11:25;17.10;;;11.63;;
4646;SDS011;2336;47.822;7.564;2024-01-15T09:13:52;20.53;;;12.33;;
4646;SDS011;2336;47.822;7.564;2024-01-15T09:16:20;32.03;;;18.23;;
4646;SDS011;2336;47.822;7.564;2024-01-15T09:18:47;21.23;;;14.23;;
4646;SDS011;2336;47.822;7.564;2024-01-15T09:21:13;15.90;;;12.23;;
4646;SDS011;2336;47.822;7.564;2024-01-15T09:23:40;17.83;;;13.40;;
4646;SDS011;2336;47.822;7.564;2024-01-15T09:26:07;16.23;;;11.80;;
4646;SDS011;2336;47.822;7.564;2024-01-15T09:28:34;14.33;;;11.10;;
4646;SDS011;2336;47.822;7.564;2024-01-15T09:31:01;16.33;;;12.40;;
4646;SDS011;2336;47.822;7.564;2024-01-15T09:33:29;19.07;;;12.80;;
4646;SDS011;2336;47.822;7.564;2024-01-15T09:35:56;15.70;;;11.47;;
4646;SDS011;2336;47.822;7.564;2024-01-15T09:38:22;16.87;;;11.07;;
4646;SDS011;2336;47.822;7.564;2024-01-15T09:40:49;15.80;;;12.57;;
4646;SDS011;2336;47.822;7.564;2024-01-15T09:43:17;19.07;;;13.43;;
4646;SDS011;2336;47.822;7.564;2024-01-15T09:45:45;44.00;;;20.13;;
4646;SDS011;2336;47.822;7.564;2024-01-15T09:48:12;29.93;;;15.13;;
4646;SDS011;2336;47.822;7.564;2024-01-15T09:50:40;21.30;;;15.07;;
4646;SDS011;2336;47.822;7.564;2024-01-15T09:53:07;20.00;;;13.20;;
4646;SDS011;2336;47.822;7.564;2024-01-15T09:55:35;20.23;;;14.80;;
4646;SDS011;2336;47.822;7.564;2024-01-15T09:58:03;20.93;;;14.17;;
4646;SDS011;2336;47.822;7.564;2024-01-15T10:00:30;22.90;;;15.80;;
4646;SDS011;2336;47.822;7.564;2024-01-15T10:02:58;29.90;;;19.60;;
4646;SDS011;2336;47.822;7.564;2024-01-15T10:05:25;26.27;;;17.63;;
4646;SDS011;2336;47.822;7.564;2024-01-15T10:07:53;20.97;;;15.33;;
4646;SDS011;2336;47.822;7.564;2024-01-15T10:10:22;24.60;;;16.33;;
4646;SDS011;2336;47.822;7.564;2024-01-15T10:12:49;29.87;;;20.57;;
4646;SDS011;2336;47.822;7.564;2024-01-15T10:15:16;27.13;;;17.87;;
4646;SDS011;2336;47.822;7.564;2024-01-15T10:17:42;22.77;;;16.30;;
4646;SDS011;2336;47.822;7.564;2024-01-15T10:20:10;27.77;;;19.37;;
4646;SDS011;2336;47.822;7.564;2024-01-15T10:22:39;28.37;;;20.00;;
4646;SDS011;2336;47.822;7.564;2024-01-15T10:25:11;26.17;;;16.53;;
4646;SDS011;2336;47.822;7.564;2024-01-15T10:27:38;26.00;;;16.77;;
4646;SDS011;2336;47.822;7.564;2024-01-15T10:30:06;26.90;;;16.63;;
4646;SDS011;2336;47.822;7.564;2024-01-15T10:32:33;29.07;;;17.37;;
4646;SDS011;2336;47.822;7.564;2024-01-15T10:35:00;27.30;;;17.87;;
4646;SDS011;2336;47.822;7.564;2024-01-15T10:37:27;28.53;;;18.73;;
4646;SDS011;2336;47.822;7.564;2024-01-15T10:39:54;41.63;;;24.00;;
4646;SDS011;2336;47.822;7.564;2024-01-15T10:42:22;24.67;;;17.03;;
4646;SDS011;2336;47.822;7.564;2024-01-15T10:44:49;19.87;;;14.07;;
4646;SDS011;2336;47.822;7.564;2024-01-15T10:47:16;19.47;;;13.93;;
4646;SDS011;2336;47.822;7.564;2024-01-15T10:49:44;20.80;;;14.33;;
4646;SDS011;2336;47.822;7.564;2024-01-15T10:52:12;19.87;;;14.33;;
4646;SDS011;2336;47.822;7.564;2024-01-15T10:54:39;24.30;;;16.37;;
4646;SDS011;2336;47.822;7.564;2024-01-15T10:57:07;18.40;;;14.17;;
4646;SDS011;2336;47.822;7.564;2024-01-15T10:59:36;21.93;;;15.90;;
4646;SDS011;2336;47.822;7.564;2024-01-15T11:02:03;22.30;;;16.43;;
4646;SDS011;2336;47.822;7.564;2024-01-15T11:04:31;28.50;;;20.10;;
4646;SDS011;2336;47.822;7.564;2024-01-15T11:06:58;18.50;;;13.50;;
4646;SDS011;2336;47.822;7.564;2024-01-15T11:09:26;21.63;;;14.60;;
4646;SDS011;2336;47.822;7.564;2024-01-15T11:11:54;19.70;;;14.23;;
4646;SDS011;2336;47.822;7.564;2024-01-15T11:14:33;20.07;;;13.07;;
4646;SDS011;2336;47.822;7.564;2024-01-15T11:17:04;16.20;;;12.00;;
4646;SDS011;2336;47.822;7.564;2024-01-15T11:19:37;16.47;;;12.03;;
4646;SDS011;2336;47.822;7.564;2024-01-15T11:22:06;15.27;;;11.97;;
4646;SDS011;2336;47.822;7.564;2024-01-15T11:24:37;15.57;;;11.63;;
4646;SDS011;2336;47.822;7.564;2024-01-15T11:27:05;18.60;;;12.00;;
4646;SDS011;2336;47.822;7.564;2024-01-15T11:29:33;17.33;;;11.23;;
4646;SDS011;2336;47.822;7.564;2024-01-15T11:32:03;17.00;;;12.43;;
4646;SDS011;2336;47.822;7.564;2024-01-15T11:37:16;17.80;;;12.57;;
4646;SDS011;2336;47.822;7.564;2024-01-15T11:39:43;14.70;;;11.33;;
4646;SDS011;2336;47.822;7.564;2024-01-15T11:42:12;17.93;;;12.50;;
4646;SDS011;2336;47.822;7.564;2024-01-15T11:44:39;16.63;;;11.97;;
4646;SDS011;2336;47.822;7.564;2024-01-15T11:47:08;16.03;;;12.20;;
4646;SDS011;2336;47.822;7.564;2024-01-15T11:49:46;16.20;;;11.93;;
4646;SDS011;2336;47.822;7.564;2024-01-15T11:52:56;18.07;;;12.47;;
4646;SDS011;2336;47.822;7.564;2024-01-15T11:55:26;13.43;;;11.13;;
4646;SDS011;2336;47.822;7.564;2024-01-15T12:01:08;19.27;;;14.60;;
4646;SDS011;2336;47.822;7.564;2024-01-15T12:03:36;21.90;;;15.07;;
4646;SDS011;2336;47.822;7.564;2024-01-15T12:06:05;17.67;;;13.53;;
4646;SDS011;2336;47.822;7.564;2024-01-15T12:08:32;18.27;;;12.23;;
4646;SDS011;2336;47.822;7.564;2024-01-15T12:10:59;13.60;;;11.97;;
4646;SDS011;2336;47.822;7.564;2024-01-15T12:13:27;14.27;;;11.97;;
4646;SDS011;2336;47.822;7.564;2024-01-15T12:15:54;14.80;;;11.33;;
4646;SDS011;2336;47.822;7.564;2024-01-15T12:18:21;17.70;;;12.17;;
4646;SDS011;2336;47.822;7.564;2024-01-15T12:20:49;17.73;;;13.37;;
4646;SDS011;2336;47.822;7.564;2024-01-15T12:23:17;16.70;;;13.70;;
4646;SDS011;2336;47.822;7.564;2024-01-15T12:25:43;14.63;;;11.77;;
4646;SDS011;2336;47.822;7.564;2024-01-15T12:28:11;16.73;;;12.83;;
4646;SDS011;2336;47.822;7.564;2024-01-15T12:30:38;15.80;;;12.30;;
4646;SDS011;2336;47.822;7.564;2024-01-15T12:33:05;17.40;;;13.53;;
4646;SDS011;2336;47.822;7.564;2024-01-15T12:35:33;19.73;;;13.00;;
4646;SDS011;2336;47.822;7.564;2024-01-15T12:38:02;20.30;;;13.10;;
4646;SDS011;2336;47.822;7.564;2024-01-15T12:40:30;21.00;;;14.40;;
4646;SDS011;2336;47.822;7.564;2024-01-15T12:42:57;21.27;;;14.17;;
4646;SDS011;2336;47.822;7.564;2024-01-15T12:45:24;17.73;;;12.80;;
4646;SDS011;2336;47.822;7.564;2024-01-15T12:47:51;14.80;;;12.47;;
4646;SDS011;2336;47.822;7.564;2024-01-15T12:50:23;15.53;;;12.70;;
4646;SDS011;2336;47.822;7.564;2024-01-15T12:52:51;17.80;;;12.70;;
4646;SDS011;2336;47.822;7.564;2024-01-15T12:55:19;16.37;;;12.10;;
4646;SDS011;2336;47.822;7.564;2024-01-15T12:57:46;17.70;;;13.07;;
4646;SDS011;2336;47.822;7.564;2024-01-15T13:00:15;16.20;;;12.77;;
4646;SDS011;2336;47.822;7.564;2024-01-15T13:02:42;16.23;;;12.73;;
4646;SDS011;2336;47.822;7.564;2024-01-15T13:05:09;15.20;;;12.50;;
4646;SDS011;2336;47.822;7.564;2024-01-15T13:07:36;18.97;;;13.07;;
4646;SDS011;2336;47.822;7.564;2024-01-15T13:10:03;19.73;;;13.30;;
4646;SDS011;2336;47.822;7.564;2024-01-15T13:12:32;16.37;;;13.23;;
4646;SDS011;2336;47.822;7.564;2024-01-15T13:14:59;20.47;;;13.60;;
4646;SDS011;2336;47.822;7.564;2024-01-15T13:17:28;19.80;;;15.13;;
4646;SDS011;2336;47.822;7.564;2024-01-15T13:19:55;23.43;;;15.80;;
4646;SDS011;2336;47.822;7.564;2024-01-15T13:22:22;19.17;;;14.70;;
4646;SDS011;2336;47.822;7.564;2024-01-15T13:24:54;20.47;;;14.70;;
4646;SDS011;2336;47.822;7.564;2024-01-15T13:27:21;23.43;;;16.07;;
4646;SDS011;2336;47.822;7.564;2024-01-15T13:29:49;20.63;;;15.10;;
4646;SDS011;2336;47.822;7.564;2024-01-15T13:32:17;21.97;;;14.67;;
4646;SDS011;2336;47.822;7.564;2024-01-15T13:34:48;19.90;;;15.63;;
4646;SDS011;2336;47.822;7.564;2024-01-15T13:37:15;19.37;;;15.13;;
4646;SDS011;2336;47.822;7.564;2024-01-15T13:39:42;22.43;;;16.27;;
4646;SDS011;2336;47.822;7.564;2024-01-15T13:42:09;22.43;;;15.60;;
4646;SDS011;2336;47.822;7.564;2024-01-15T13:44:36;23.20;;;17.00;;
4646;SDS011;2336;47.822;7.564;2024-01-15T13:47:04;18.80;;;14.57;;
4646;SDS011;2336;47.822;7.564;2024-01-15T13:49:31;20.60;;;15.03;;
4646;SDS011;2336;47.822;7.564;2024-01-15T13:51:59;22.47;;;15.90;;
4646;SDS011;2336;47.822;7.564;2024-01-15T13:54:28;21.20;;;15.90;;
4646;SDS011;2336;47.822;7.564;2024-01-15T13:56:55;19.60;;;14.37;;
4646;SDS011;2336;47.822;7.564;2024-01-15T13:59:24;22.07;;;15.37;;
4646;SDS011;2336;47.822;7.564;2024-01-15T14:01:51;19.83;;;14.93;;
4646;SDS011;2336;47.822;7.564;2024-01-15T14:04:19;22.50;;;16.30;;
4646;SDS011;2336;47.822;7.564;2024-01-15T14:06:45;20.50;;;16.40;;
4646;SDS011;2336;47.822;7.564;2024-01-15T14:09:12;23.73;;;16.23;;
4646;SDS011;2336;47.822;7.564;2024-01-15T14:11:39;19.93;;;15.13;;
4646;SDS011;2336;47.822;7.564;2024-01-15T14:14:06;20.87;;;15.30;;
4646;SDS011;2336;47.822;7.564;2024-01-15T14:16:34;22.07;;;16.10;;
4646;SDS011;2336;47.822;7.564;2024-01-15T14:19:01;23.30;;;16.30;;
4646;SDS011;2336;47.822;7.564;2024-01-15T14:21:29;25.40;;;17.77;;
4646;SDS011;2336;47.822;7.564;2024-01-15T14:23:56;25.20;;;17.90;;
4646;SDS011;2336;47.822;7.564;2024-01-15T14:26:23;22.90;;;17.57;;
4646;SDS011;2336;47.822;7.564;2024-01-15T14:28:50;22.90;;;17.60;;
4646;SDS011;2336;47.822;7.564;2024-01-15T14:31:17;26.23;;;16.43;;
4646;SDS011;2336;47.822;7.564;2024-01-15T14:33:45;24.37;;;17.63;;
4646;SDS011;2336;47.822;7.564;2024-01-15T14:36:12;23.10;;;16.40;;
4646;SDS011;2336;47.822;7.564;2024-01-15T14:38:40;25.23;;;17.47;;
4646;SDS011;2336;47.822;7.564;2024-01-15T14:41:07;24.57;;;16.13;;
4646;SDS011;2336;47.822;7.564;2024-01-15T14:43:33;22.83;;;15.93;;
4646;SDS011;2336;47.822;7.564;2024-01-15T14:46:00;21.87;;;15.30;;
4646;SDS011;2336;47.822;7.564;2024-01-15T14:48:27;21.47;;;16.57;;
4646;SDS011;2336;47.822;7.564;2024-01-15T14:50:54;24.73;;;16.17;;
4646;SDS011;2336;47.822;7.564;2024-01-15T14:53:21;20.60;;;16.33;;
4646;SDS011;2336;47.822;7.564;2024-01-15T14:55:49;22.97;;;17.60;;